createdAt,value
2019-06-10T00:01:40.874Z,77.19
2019-06-10T00:04:12.734Z,75.94
2019-06-10T00:06:46.036Z,75.63
2019-06-10T00:09:20.923Z,76.18
2019-06-10T00:11:52.086Z,75.29
2019-06-10T00:14:24.173Z,76.09
2019-06-10T00:16:56.799Z,75.22
2019-06-10T00:19:31.566Z,75.01
2019-06-10T00:22:04.099Z,75.31
2019-06-10T00:24:36.603Z,73.54
2019-06-10T00:27:11.462Z,73.37
2019-06-10T00:29:42.508Z,74.51
2019-06-10T00:32:14.626Z,76.18
2019-06-10T00:34:46.707Z,76.22
2019-06-10T00:37:21.183Z,75.67
2019-06-10T00:39:52.445Z,76.07
2019-06-10T00:42:24.586Z,76.87
2019-06-10T00:44:56.614Z,77.17
2019-06-10T00:47:30.656Z,76.45
2019-06-10T00:50:03.970Z,77.09
2019-06-10T00:52:36.401Z,77.30
2019-06-10T00:55:09.992Z,78.65
2019-06-10T00:57:42.411Z,76.61
2019-06-10T01:00:24.912Z,77.43
2019-06-10T01:02:48.600Z,78.28
2019-06-10T01:05:20.845Z,76.57
2019-06-10T01:07:53.048Z,76.21
2019-06-10T01:10:25.172Z,76.69
2019-06-10T01:12:57.367Z,76.89
2019-06-10T01:15:31.141Z,77.53
2019-06-10T01:18:03.627Z,77.23
2019-06-10T01:20:35.874Z,76.15
2019-06-10T01:23:09.781Z,76.30
2019-06-10T01:25:42.617Z,76.98
2019-06-10T01:28:16.875Z,76.82
2019-06-10T01:30:48.855Z,74.54
2019-06-10T01:33:21.421Z,69.63
2019-06-10T01:35:53.532Z,68.88
2019-06-10T01:38:25.764Z,70.38
2019-06-10T01:40:57.932Z,73.28
2019-06-10T01:43:32.045Z,72.70
2019-06-10T01:46:03.943Z,73.77
2019-06-10T01:48:43.953Z,74.59
2019-06-10T01:51:13.122Z,74.64
2019-06-10T01:53:45.606Z,74.85
2019-06-10T01:56:18.526Z,73.99
2019-06-10T01:58:51.693Z,75.98
2019-06-10T02:01:37.796Z,74.67
2019-06-10T02:04:13.081Z,74.23
2019-06-10T02:06:44.155Z,74.76
2019-06-10T02:09:17.242Z,75.69
2019-06-10T02:11:51.390Z,75.31
2019-06-10T02:14:24.348Z,76.63
2019-06-10T02:16:56.622Z,76.62
2019-06-10T02:19:30.927Z,76.88
2019-06-10T02:22:02.965Z,76.36
2019-06-10T02:24:35.183Z,74.41
2019-06-10T02:27:07.245Z,71.69
2019-06-10T02:29:41.224Z,73.14
2019-06-10T02:32:18.598Z,69.85
2019-06-10T02:35:02.143Z,65.02
2019-06-10T02:37:25.564Z,64.72
2019-06-10T02:39:55.154Z,64.92
2019-06-10T02:42:30.952Z,61.88
2019-06-10T02:45:04.005Z,60.61
2019-06-10T02:47:38.000Z,59.75
2019-06-10T02:50:16.229Z,59.21
2019-06-10T02:52:44.748Z,58.51
2019-06-10T02:55:18.303Z,57.95
2019-06-10T02:57:53.109Z,58.77
2019-06-10T03:00:36.958Z,58.23
2019-06-10T03:02:58.294Z,57.91
2019-06-10T03:05:40.079Z,56.70
2019-06-10T03:08:04.196Z,57.55
2019-06-10T03:10:37.345Z,56.81
2019-06-10T03:13:09.570Z,57.08
2019-06-10T03:15:43.359Z,53.41
2019-06-10T03:18:15.776Z,53.30
2019-06-10T03:20:47.863Z,54.68
2019-06-10T03:23:22.709Z,52.46
2019-06-10T03:26:04.171Z,53.11
2019-06-10T03:28:36.480Z,52.56
2019-06-10T03:31:08.718Z,50.75
2019-06-10T03:33:46.363Z,52.65
2019-06-10T03:36:14.639Z,51.97
2019-06-10T03:38:46.826Z,50.74
2019-06-10T03:41:18.947Z,50.95
2019-06-10T03:43:53.098Z,50.67
2019-06-10T03:46:26.660Z,49.95
2019-06-10T03:48:58.694Z,49.88
2019-06-10T03:51:33.167Z,49.33
2019-06-10T03:54:04.739Z,50.39
2019-06-10T03:56:36.982Z,49.44
2019-06-10T03:59:09.129Z,49.11
2019-06-10T04:01:42.603Z,49.78
2019-06-10T04:04:15.016Z,50.18
2019-06-10T04:06:47.157Z,48.86
2019-06-10T04:09:19.576Z,48.37
2019-06-10T04:11:53.261Z,46.60
2019-06-10T04:14:26.754Z,45.92
2019-06-10T04:16:59.211Z,43.75
2019-06-10T04:19:32.715Z,46.05
2019-06-10T04:22:05.015Z,45.80
2019-06-10T04:24:37.158Z,46.00
2019-06-10T04:27:09.144Z,46.69
2019-06-10T04:29:42.296Z,44.41
2019-06-10T04:32:14.486Z,45.45
2019-06-10T04:34:46.431Z,44.60
2019-06-10T04:37:18.529Z,43.57
2019-06-10T04:39:52.916Z,43.19
2019-06-10T04:42:25.755Z,44.74
2019-06-10T04:44:58.056Z,44.52
2019-06-10T04:47:33.111Z,44.39
2019-06-10T04:50:20.539Z,43.43
2019-06-10T04:52:39.198Z,44.08
2019-06-10T04:55:12.627Z,46.11
2019-06-10T04:57:44.787Z,43.95
2019-06-10T05:00:16.937Z,42.56
2019-06-10T05:02:48.975Z,40.47
2019-06-10T05:05:24.054Z,41.20
2019-06-10T05:07:55.650Z,39.62
2019-06-10T05:10:28.377Z,40.79
2019-06-10T05:13:03.145Z,40.01
2019-06-10T05:15:35.264Z,40.41
2019-06-10T05:18:08.398Z,41.33
2019-06-10T05:20:54.206Z,42.08
2019-06-10T05:23:14.225Z,39.56
2019-06-10T05:25:46.461Z,38.29
2019-06-10T05:28:19.896Z,38.72
2019-06-10T05:30:53.186Z,38.46
2019-06-10T05:33:25.990Z,36.77
2019-06-10T05:35:59.189Z,37.69
2019-06-10T05:38:34.955Z,36.80
2019-06-10T05:41:04.964Z,37.65
2019-06-10T05:43:37.103Z,36.80
2019-06-10T05:46:09.226Z,36.79
2019-06-10T05:48:43.492Z,38.44
2019-06-10T05:51:15.130Z,35.13
2019-06-10T05:53:47.126Z,34.14
2019-06-10T05:56:19.179Z,35.56
2019-06-10T05:58:52.519Z,33.10
2019-06-10T06:01:25.665Z,31.47
2019-06-10T06:03:59.153Z,34.37
2019-06-10T06:06:33.441Z,33.04
2019-06-10T06:09:09.333Z,31.46
2019-06-10T06:11:43.040Z,30.84
2019-06-10T06:14:15.395Z,29.80
2019-06-10T06:16:47.522Z,29.50
2019-06-10T06:19:19.692Z,29.70
2019-06-10T06:21:53.090Z,30.20
2019-06-10T06:24:25.644Z,27.97
2019-06-10T06:26:57.859Z,29.82
2019-06-10T06:29:31.474Z,30.00
2019-06-10T06:32:03.876Z,29.45
2019-06-10T06:34:38.663Z,29.45
2019-06-10T06:37:09.856Z,26.02
2019-06-10T06:39:42.915Z,28.48
2019-06-10T06:42:15.290Z,28.69
2019-06-10T06:44:47.529Z,27.24
2019-06-10T06:47:19.797Z,28.06
2019-06-10T06:49:53.161Z,27.09
2019-06-10T06:52:55.631Z,28.42
2019-06-10T06:55:02.322Z,26.79
2019-06-10T06:57:35.555Z,27.10
2019-06-10T07:00:34.031Z,28.70
2019-06-10T07:02:43.614Z,28.84
2019-06-10T07:05:15.975Z,27.29
2019-06-10T07:07:48.428Z,28.82
2019-06-10T07:10:22.831Z,30.16
2019-06-10T07:12:57.510Z,33.02
2019-06-10T07:15:39.518Z,37.89
2019-06-10T07:18:13.015Z,38.71
2019-06-10T07:20:45.963Z,38.89
2019-06-10T07:23:18.192Z,41.88
2019-06-10T07:25:50.324Z,42.93
2019-06-10T07:28:23.075Z,43.79
2019-06-10T07:30:55.553Z,44.44
2019-06-10T07:33:27.747Z,44.10
2019-06-10T07:35:59.861Z,44.67
2019-06-10T07:38:33.887Z,43.97
2019-06-10T07:41:06.050Z,43.67
2019-06-10T07:43:41.314Z,43.56
2019-06-10T07:46:13.426Z,43.24
2019-06-10T07:48:48.137Z,43.67
2019-06-10T07:51:22.355Z,43.03
2019-06-10T07:53:53.452Z,43.19
2019-06-10T07:56:25.573Z,43.26
2019-06-10T07:58:57.719Z,42.85
2019-06-10T08:01:29.850Z,42.16
2019-06-10T08:04:03.085Z,42.67
2019-06-10T08:06:36.408Z,41.64
2019-06-10T08:09:09.044Z,41.54
2019-06-10T08:11:44.924Z,41.61
2019-06-10T08:14:15.119Z,42.18
2019-06-10T08:16:48.491Z,42.05
2019-06-10T08:19:33.840Z,41.69
2019-06-10T08:21:54.502Z,41.10
2019-06-10T08:24:26.707Z,41.02
2019-06-10T08:26:58.913Z,40.77
2019-06-10T08:29:33.045Z,40.57
2019-06-10T08:32:05.253Z,39.50
2019-06-10T08:34:38.017Z,38.49
2019-06-10T08:37:13.505Z,39.44
2019-06-10T08:39:45.930Z,38.91
2019-06-10T08:42:17.933Z,38.31
2019-06-10T08:44:50.060Z,38.50
2019-06-10T08:47:22.947Z,38.70
2019-06-10T08:49:55.165Z,38.20
2019-06-10T08:52:27.186Z,35.82
2019-06-10T08:54:59.212Z,36.25
2019-06-10T08:57:33.457Z,36.46
2019-06-10T09:00:11.658Z,36.61
2019-06-10T09:02:41.959Z,36.33
2019-06-10T09:05:19.433Z,35.78
2019-06-10T09:07:54.370Z,33.91
2019-06-10T09:10:25.282Z,33.88
2019-06-10T09:12:57.265Z,32.91
2019-06-10T09:15:29.242Z,32.52
2019-06-10T09:18:02.684Z,32.28
2019-06-10T09:20:34.905Z,30.44
2019-06-10T09:23:20.986Z,28.76
2019-06-10T09:25:45.760Z,28.84
2019-06-10T09:28:14.478Z,28.19
2019-06-10T09:30:52.929Z,27.76
2019-06-10T09:33:22.566Z,28.67
2019-06-10T09:35:55.047Z,29.74
2019-06-10T09:38:27.240Z,29.69
2019-06-10T09:41:04.860Z,30.68
2019-06-10T09:43:34.235Z,29.77
2019-06-10T09:46:06.170Z,29.15
2019-06-10T09:48:38.681Z,28.37
2019-06-10T09:51:12.460Z,27.71
2019-06-10T09:53:54.641Z,27.83
2019-06-10T09:56:18.346Z,26.00
2019-06-10T09:58:52.751Z,24.68
2019-06-10T10:01:24.755Z,25.01
2019-06-10T10:04:00.195Z,25.89
2019-06-10T10:06:32.678Z,22.71
2019-06-10T10:09:06.871Z,24.19
2019-06-10T10:11:39.016Z,24.38
2019-06-10T10:14:15.789Z,24.21
2019-06-10T10:16:49.362Z,23.63
2019-06-10T10:19:18.521Z,23.14
2019-06-10T10:21:56.599Z,23.06
2019-06-10T10:24:24.260Z,22.91
2019-06-10T10:26:58.018Z,23.37
2019-06-10T10:29:32.705Z,23.83
2019-06-10T10:32:03.995Z,24.46
2019-06-10T10:34:36.026Z,23.89
2019-06-10T10:37:12.217Z,23.09
2019-06-10T10:39:44.570Z,23.27
2019-06-10T10:42:17.118Z,23.52
2019-06-10T10:44:52.065Z,24.52
2019-06-10T10:47:27.461Z,23.92
2019-06-10T10:49:57.191Z,23.15
2019-06-10T10:52:29.337Z,24.47
2019-06-10T10:55:06.661Z,24.00
2019-06-10T10:57:35.279Z,24.44
2019-06-10T11:00:12.279Z,23.09
2019-06-10T11:02:44.943Z,23.83
2019-06-10T11:05:35.035Z,24.92
2019-06-10T11:08:08.310Z,23.91
2019-06-10T11:10:43.882Z,23.31
2019-06-10T11:13:14.241Z,24.05
2019-06-10T11:15:47.339Z,22.90
2019-06-10T11:18:19.480Z,22.00
2019-06-10T11:20:51.582Z,22.73
2019-06-10T11:23:23.646Z,23.70
2019-06-10T11:25:57.195Z,23.35
2019-06-10T11:28:29.328Z,23.80
2019-06-10T11:31:03.300Z,24.42
2019-06-10T11:33:35.046Z,23.79
2019-06-10T11:36:07.125Z,23.30
2019-06-10T11:38:39.126Z,22.88
2019-06-10T11:41:13.581Z,22.12
2019-06-10T11:43:46.297Z,22.36
2019-06-10T11:46:18.437Z,24.34
2019-06-10T11:48:53.672Z,25.17
2019-06-10T11:51:24.245Z,26.23
2019-06-10T11:53:57.650Z,26.04
2019-06-10T11:56:30.134Z,25.92
2019-06-10T11:59:08.227Z,24.87
2019-06-10T12:01:35.908Z,25.15
2019-06-10T12:04:07.967Z,25.50
2019-06-10T12:06:42.400Z,25.06
2019-06-10T12:09:13.993Z,23.98
2019-06-10T12:11:46.040Z,24.74
2019-06-10T12:14:17.998Z,24.38
2019-06-10T12:17:17.589Z,24.80
2019-06-10T12:19:23.760Z,24.68
2019-06-10T12:21:59.689Z,26.19
2019-06-10T12:24:32.839Z,26.25
2019-06-10T12:27:05.114Z,24.70
2019-06-10T12:29:37.159Z,24.63
2019-06-10T12:32:09.268Z,24.31
2019-06-10T12:34:41.333Z,24.57
2019-06-10T12:37:15.967Z,22.90
2019-06-10T12:39:47.483Z,22.86
2019-06-10T12:42:19.474Z,23.92
2019-06-10T12:44:53.845Z,25.29
2019-06-10T12:47:25.246Z,25.08
2019-06-10T12:49:57.625Z,25.12
2019-06-10T12:52:32.435Z,24.25
2019-06-10T12:55:09.231Z,24.67
2019-06-10T12:57:42.823Z,24.37
2019-06-10T13:00:20.643Z,24.41
2019-06-10T13:02:53.019Z,24.31
2019-06-10T13:05:24.256Z,23.09
2019-06-10T13:07:59.722Z,23.96
2019-06-10T13:10:37.824Z,24.69
2019-06-10T13:13:11.155Z,25.87
2019-06-10T13:15:43.516Z,26.83
2019-06-10T13:18:19.533Z,26.54
2019-06-10T13:20:49.454Z,27.57
2019-06-10T13:23:29.054Z,26.47
2019-06-10T13:25:58.704Z,25.10
2019-06-10T13:28:28.840Z,24.38
2019-06-10T13:31:04.265Z,24.94
2019-06-10T13:33:34.715Z,25.66
2019-06-10T13:36:08.636Z,25.56
2019-06-10T13:38:42.753Z,25.70
2019-06-10T13:41:14.511Z,25.73
2019-06-10T13:43:46.611Z,26.45
2019-06-10T13:46:18.620Z,25.75
2019-06-10T13:48:52.271Z,25.36
2019-06-10T13:51:24.474Z,24.98
2019-06-10T13:53:56.622Z,24.80
2019-06-10T13:56:43.169Z,25.43
2019-06-10T13:59:04.072Z,27.51
2019-06-10T14:01:36.124Z,27.02
2019-06-10T14:04:15.910Z,26.44
2019-06-10T14:06:49.745Z,25.91
2019-06-10T14:09:16.747Z,25.71
2019-06-10T14:11:48.877Z,25.88
2019-06-10T14:14:22.957Z,26.13
2019-06-10T14:16:54.784Z,26.23
2019-06-10T14:19:26.808Z,25.96
2019-06-10T14:21:58.890Z,26.39
2019-06-10T14:24:33.088Z,26.60
2019-06-10T14:27:08.746Z,26.99
2019-06-10T14:29:39.272Z,27.14
2019-06-10T14:32:13.905Z,27.48
2019-06-10T14:34:45.187Z,27.55
2019-06-10T14:37:32.318Z,27.81
2019-06-10T14:39:52.902Z,28.39
2019-06-10T14:42:24.984Z,28.66
2019-06-10T14:44:57.132Z,27.62
2019-06-10T14:47:29.616Z,29.23
2019-06-10T14:50:03.260Z,28.77
2019-06-10T14:52:35.894Z,30.25
2019-06-10T14:55:09.349Z,29.51
2019-06-10T14:57:42.555Z,30.72
2019-06-10T15:00:17.961Z,31.63
2019-06-10T15:02:48.744Z,31.56
2019-06-10T15:05:23.079Z,32.69
2019-06-10T15:07:54.642Z,31.88
2019-06-10T15:10:26.842Z,32.49
2019-06-10T15:12:58.853Z,33.34
2019-06-10T15:15:32.928Z,33.87
2019-06-10T15:18:04.775Z,32.22
2019-06-10T15:20:37.208Z,33.32
2019-06-10T15:23:09.518Z,34.31
2019-06-10T15:25:50.266Z,34.01
2019-06-10T15:28:17.629Z,33.45
2019-06-10T15:30:52.240Z,31.74
2019-06-10T15:33:24.030Z,30.06
2019-06-10T15:35:56.138Z,30.79
2019-06-10T15:38:28.300Z,30.67
2019-06-10T15:41:00.523Z,30.57
2019-06-10T15:43:33.201Z,31.08
2019-06-10T15:46:05.343Z,31.40
2019-06-10T15:48:37.380Z,31.40
2019-06-10T15:51:11.028Z,31.81
2019-06-10T15:53:43.536Z,32.58
2019-06-10T15:56:29.880Z,33.66
2019-06-10T15:58:49.453Z,35.40
2019-06-10T16:01:25.445Z,34.25
2019-06-10T16:03:55.380Z,34.08
2019-06-10T16:06:27.485Z,35.34
2019-06-10T16:08:59.717Z,35.93
2019-06-10T16:11:33.096Z,35.53
2019-06-10T16:14:05.960Z,36.14
2019-06-10T16:16:38.199Z,35.80
2019-06-10T16:19:12.847Z,36.67
2019-06-10T16:21:44.381Z,36.53
2019-06-10T16:24:17.276Z,35.70
2019-06-10T16:26:52.449Z,36.02
2019-06-10T16:29:26.764Z,34.96
2019-06-10T16:31:58.187Z,34.72
2019-06-10T16:34:32.416Z,35.54
2019-06-10T16:37:04.219Z,34.80
2019-06-10T16:39:36.507Z,35.62
2019-06-10T16:42:08.838Z,34.58
2019-06-10T16:44:42.322Z,35.79
2019-06-10T16:47:14.645Z,36.25
2019-06-10T16:49:46.739Z,36.91
2019-06-10T16:52:19.571Z,36.69
2019-06-10T16:54:52.619Z,36.28
2019-06-10T16:57:25.956Z,37.18
2019-06-10T16:59:59.045Z,36.99
2019-06-10T17:02:33.042Z,37.10
2019-06-10T17:05:06.834Z,36.89
2019-06-10T17:07:39.040Z,36.60
2019-06-10T17:10:12.675Z,36.81
2019-06-10T17:12:46.654Z,38.02
2019-06-10T17:15:19.069Z,41.03
2019-06-10T17:17:52.155Z,39.46
2019-06-10T17:20:26.289Z,39.25
2019-06-10T17:23:03.105Z,40.05
2019-06-10T17:25:34.714Z,40.64
2019-06-10T17:28:18.026Z,40.94
2019-06-10T17:30:42.630Z,41.29
2019-06-10T17:33:15.451Z,41.48
2019-06-10T17:35:47.518Z,41.68
2019-06-10T17:38:20.531Z,39.92
2019-06-10T17:40:52.791Z,39.55
2019-06-10T17:43:25.247Z,39.83
2019-06-10T17:45:58.510Z,39.67
2019-06-10T17:48:33.455Z,40.04
2019-06-10T17:51:06.071Z,40.33
2019-06-10T17:53:38.796Z,40.39
2019-06-10T17:56:13.176Z,39.40
2019-06-10T17:58:53.847Z,38.13
2019-06-10T18:01:18.429Z,40.29
2019-06-10T18:03:52.893Z,39.36
2019-06-10T18:06:25.900Z,40.44
2019-06-10T18:08:58.252Z,39.96
2019-06-10T18:11:32.827Z,39.28
2019-06-10T18:14:04.755Z,39.96
2019-06-10T18:16:36.976Z,40.69
2019-06-10T18:19:09.146Z,40.90
2019-06-10T18:21:41.357Z,41.53
2019-06-10T18:24:13.594Z,41.82
2019-06-10T18:26:45.893Z,43.44
2019-06-10T18:29:18.018Z,42.70
2019-06-10T18:31:50.209Z,43.75
2019-06-10T18:34:22.768Z,42.61
2019-06-10T18:36:54.875Z,43.03
2019-06-10T18:39:27.329Z,42.12
2019-06-10T18:41:59.623Z,42.01
2019-06-10T18:44:33.707Z,41.31
2019-06-10T18:47:05.722Z,41.42
2019-06-10T18:49:37.870Z,41.48
2019-06-10T18:52:12.527Z,41.57
2019-06-10T18:54:43.893Z,43.19
2019-06-10T18:57:16.042Z,45.29
2019-06-10T18:59:48.243Z,43.20
2019-06-10T19:02:22.510Z,43.12
2019-06-10T19:04:54.760Z,43.01
2019-06-10T19:07:28.729Z,45.39
2019-06-10T19:10:02.372Z,46.94
2019-06-10T19:12:36.620Z,48.57
2019-06-10T19:15:08.918Z,47.11
2019-06-10T19:17:44.281Z,46.44
2019-06-10T19:20:15.433Z,43.87
2019-06-10T19:22:47.605Z,45.48
2019-06-10T19:28:07.340Z,43.39
2019-06-10T19:30:41.468Z,44.44
2019-06-10T19:33:13.444Z,43.27
2019-06-10T19:35:45.611Z,45.93
2019-06-10T19:38:17.848Z,48.82
2019-06-10T19:40:52.153Z,50.19
2019-06-10T19:43:23.924Z,51.05
2019-06-10T19:45:57.806Z,51.26
2019-06-10T19:48:33.068Z,52.20
2019-06-10T19:51:05.184Z,53.73
2019-06-10T19:53:37.365Z,54.11
2019-06-10T19:56:09.443Z,54.38
2019-06-10T19:58:43.416Z,55.24
2019-06-10T20:01:16.418Z,54.11
2019-06-10T20:03:48.587Z,54.46
2019-06-10T20:06:20.690Z,54.70
2019-06-10T20:08:52.828Z,54.38
2019-06-10T20:11:25.034Z,54.09
2019-06-10T20:13:57.132Z,54.13
2019-06-10T20:16:29.273Z,54.08
2019-06-10T20:19:03.023Z,52.95
2019-06-10T20:21:36.027Z,54.27
2019-06-10T20:24:08.198Z,52.24
2019-06-10T20:26:43.691Z,53.79
2019-06-10T20:29:15.457Z,54.50
2019-06-10T20:31:48.900Z,54.79
2019-06-10T20:34:24.149Z,56.43
2019-06-10T20:36:55.108Z,56.18
2019-06-10T20:39:29.382Z,55.95
2019-06-10T20:42:02.800Z,51.30
2019-06-10T20:44:35.228Z,50.37
2019-06-10T20:47:07.438Z,49.74
2019-06-10T20:49:39.767Z,52.30
2019-06-10T20:52:14.737Z,54.56
2019-06-10T20:54:47.829Z,55.10
2019-06-10T20:57:19.560Z,55.37
2019-06-10T20:59:51.660Z,50.14
2019-06-10T21:02:24.812Z,50.47
2019-06-10T21:04:58.041Z,51.29
2019-06-10T21:07:32.384Z,51.18
2019-06-10T21:10:06.295Z,51.93
2019-06-10T21:12:39.670Z,52.59
2019-06-10T21:15:12.579Z,50.33
2019-06-10T21:17:46.346Z,50.47
2019-06-10T21:20:18.728Z,53.60
2019-06-10T21:22:53.074Z,54.35
2019-06-10T21:25:24.570Z,54.91
2019-06-10T21:27:56.669Z,51.22
2019-06-10T21:30:40.559Z,50.87
2019-06-10T21:33:03.580Z,50.99
2019-06-10T21:35:36.085Z,51.08
2019-06-10T21:38:08.262Z,51.51
2019-06-10T21:40:42.505Z,52.02
2019-06-10T21:43:14.431Z,52.37
2019-06-10T21:45:51.227Z,52.52
2019-06-10T21:48:22.838Z,52.18
2019-06-10T21:50:55.962Z,52.18
2019-06-10T21:53:30.941Z,51.27
2019-06-10T21:56:03.095Z,51.40
2019-06-10T21:58:36.688Z,51.69
2019-06-10T22:01:13.179Z,51.47
2019-06-10T22:03:45.538Z,51.93
2019-06-10T22:06:16.761Z,53.37
2019-06-10T22:08:50.005Z,52.69
2019-06-10T22:11:23.437Z,51.73
2019-06-10T22:13:56.377Z,52.01
2019-06-10T22:16:28.669Z,52.58
2019-06-10T22:19:03.323Z,52.81
2019-06-10T22:21:34.700Z,52.60
2019-06-10T22:24:06.885Z,52.14
2019-06-10T22:26:39.078Z,52.64
2019-06-10T22:29:12.640Z,53.56
2019-06-10T22:31:47.136Z,52.77
2019-06-10T22:34:19.257Z,52.79
2019-06-10T22:36:53.802Z,53.83
2019-06-10T22:39:25.184Z,54.17
2019-06-10T22:41:57.337Z,54.17
2019-06-10T22:44:29.464Z,54.40
2019-06-10T22:47:02.872Z,54.59
2019-06-10T22:49:35.188Z,55.01
2019-06-10T22:52:07.330Z,54.37
2019-06-10T22:54:39.427Z,54.71
2019-06-10T22:57:12.975Z,55.08
2019-06-10T22:59:45.105Z,55.35
2019-06-10T23:02:17.233Z,55.18
2019-06-10T23:04:49.298Z,54.99
2019-06-10T23:07:23.056Z,55.57
2019-06-10T23:09:56.340Z,55.55
2019-06-10T23:12:28.978Z,59.55
2019-06-10T23:15:02.879Z,60.02
2019-06-10T23:17:36.336Z,61.21
2019-06-10T23:20:08.934Z,58.04
2019-06-10T23:22:41.144Z,56.65
2019-06-10T23:25:13.565Z,56.72
2019-06-10T23:27:45.675Z,60.07
2019-06-10T23:30:17.895Z,60.76
2019-06-10T23:32:50.019Z,61.18
2019-06-10T23:35:23.087Z,61.66
2019-06-10T23:37:57.239Z,60.99
2019-06-10T23:40:29.333Z,60.05
2019-06-10T23:43:03.699Z,58.87
2019-06-10T23:45:35.234Z,58.84
2019-06-10T23:48:07.366Z,58.31
2019-06-10T23:50:39.528Z,57.82
2019-06-10T23:53:13.210Z,56.80
2019-06-10T23:55:45.544Z,56.62
2019-06-10T23:58:17.659Z,56.29
